sensor_id;sensor_type;location;lat;lon;timestamp;pressure;altitude;pressure_sealevel;temperature;humidity
71043;BME280;58696;52.134;5.500;2023-08-06T00:02:01;100465.50;;;14.73;100.00
71043;BME280;58696;52.134;5.500;2023-08-06T00:04:33;100462.53;;;14.70;100.00
71043;BME280;58696;52.134;5.500;2023-08-06T00:07:02;100460.97;;;14.69;100.00
71043;BME280;58696;52.134;5.500;2023-08-06T00:09:34;100470.31;;;14.70;100.00
71043;BME280;58696;52.134;5.500;2023-08-06T00:12:04;100462.19;;;14.66;100.00
71043;BME280;58696;52.134;5.500;2023-08-06T00:14:34;100455.78;;;14.69;100.00
71043;BME280;58696;52.134;5.500;2023-08-06T00:17:06;100451.63;;;14.68;100.00
71043;BME280;58696;52.134;5.500;2023-08-06T00:19:32;100451.84;;;14.66;100.00
71043;BME280;58696;52.134;5.500;2023-08-06T00:21:59;100463.41;;;14.64;100.00
71043;BME280;58696;52.134;5.500;2023-08-06T00:24:34;100457.66;;;14.62;100.00
71043;BME280;58696;52.134;5.500;2023-08-06T00:27:06;100452.06;;;14.65;100.00
71043;BME280;58696;52.134;5.500;2023-08-06T00:29:33;100460.38;;;14.67;100.00
71043;BME280;58696;52.134;5.500;2023-08-06T00:32:05;100457.22;;;14.65;100.00
71043;BME280;58696;52.134;5.500;2023-08-06T00:34:31;100448.69;;;14.64;100.00
71043;BME280;58696;52.134;5.500;2023-08-06T00:37:03;100449.25;;;14.66;100.00
71043;BME280;58696;52.134;5.500;2023-08-06T00:39:32;100447.66;;;14.65;100.00
71043;BME280;58696;52.134;5.500;2023-08-06T00:42:03;100456.88;;;14.61;100.00
71043;BME280;58696;52.134;5.500;2023-08-06T00:44:30;100450.13;;;14.60;100.00
71043;BME280;58696;52.134;5.500;2023-08-06T00:46:56;100458.09;;;14.59;100.00
71043;BME280;58696;52.134;5.500;2023-08-06T00:49:26;100449.75;;;14.57;100.00
71043;BME280;58696;52.134;5.500;2023-08-06T00:51:59;100451.56;;;14.56;100.00
71043;BME280;58696;52.134;5.500;2023-08-06T00:54:27;100448.53;;;14.59;100.00
71043;BME280;58696;52.134;5.500;2023-08-06T00:56:56;100449.09;;;14.61;100.00
71043;BME280;58696;52.134;5.500;2023-08-06T00:59:27;100455.66;;;14.64;100.00
71043;BME280;58696;52.134;5.500;2023-08-06T01:01:54;100448.69;;;14.64;100.00
71043;BME280;58696;52.134;5.500;2023-08-06T01:04:22;100446.66;;;14.66;100.00
71043;BME280;58696;52.134;5.500;2023-08-06T01:09:55;100453.22;;;14.69;100.00
71043;BME280;58696;52.134;5.500;2023-08-06T01:15:08;100446.00;;;14.71;100.00
71043;BME280;58696;52.134;5.500;2023-08-06T01:17:40;100442.41;;;14.72;100.00
71043;BME280;58696;52.134;5.500;2023-08-06T01:20:09;100443.00;;;14.74;100.00
71043;BME280;58696;52.134;5.500;2023-08-06T01:22:38;100443.00;;;14.74;100.00
71043;BME280;58696;52.134;5.500;2023-08-06T01:25:08;100437.81;;;14.74;100.00
71043;BME280;58696;52.134;5.500;2023-08-06T01:27:48;100440.59;;;14.72;100.00
71043;BME280;58696;52.134;5.500;2023-08-06T01:30:28;100449.59;;;14.70;100.00
71043;BME280;58696;52.134;5.500;2023-08-06T01:33:06;100446.22;;;14.69;100.00
71043;BME280;58696;52.134;5.500;2023-08-06T01:35:36;100449.06;;;14.68;100.00
71043;BME280;58696;52.134;5.500;2023-08-06T01:38:06;100443.28;;;14.66;100.00
71043;BME280;58696;52.134;5.500;2023-08-06T01:40:33;100442.72;;;14.64;100.00
71043;BME280;58696;52.134;5.500;2023-08-06T01:43:01;100451.84;;;14.66;100.00
71043;BME280;58696;52.134;5.500;2023-08-06T01:45:28;100441.47;;;14.66;100.00
71043;BME280;58696;52.134;5.500;2023-08-06T01:47:56;100444.84;;;14.67;100.00
71043;BME280;58696;52.134;5.500;2023-08-06T01:50:23;100441.16;;;14.63;100.00
71043;BME280;58696;52.134;5.500;2023-08-06T01:52:52;100449.09;;;14.61;100.00
71043;BME280;58696;52.134;5.500;2023-08-06T01:55:19;100453.50;;;14.61;100.00
71043;BME280;58696;52.134;5.500;2023-08-06T01:57:48;100450.91;;;14.61;100.00
71043;BME280;58696;52.134;5.500;2023-08-06T02:00:17;100447.97;;;14.57;100.00
71043;BME280;58696;52.134;5.500;2023-08-06T02:02:43;100451.56;;;14.56;100.00
71043;BME280;58696;52.134;5.500;2023-08-06T02:05:15;100456.53;;;14.58;100.00
71043;BME280;58696;52.134;5.500;2023-08-06T02:07:47;100451.00;;;14.54;100.00
71043;BME280;58696;52.134;5.500;2023-08-06T02:10:13;100444.47;;;14.52;100.00
71043;BME280;58696;52.134;5.500;2023-08-06T02:12:43;100449.06;;;14.50;100.00
71043;BME280;58696;52.134;5.500;2023-08-06T02:15:09;100453.44;;;14.49;100.00
71043;BME280;58696;52.134;5.500;2023-08-06T02:17:36;100443.09;;;14.49;100.00
71043;BME280;58696;52.134;5.500;2023-08-06T02:20:03;100453.66;;;14.48;100.00
71043;BME280;58696;52.134;5.500;2023-08-06T02:22:30;100444.31;;;14.46;100.00
71043;BME280;58696;52.134;5.500;2023-08-06T02:24:59;100446.88;;;14.46;100.00
71043;BME280;58696;52.134;5.500;2023-08-06T02:27:28;100446.88;;;14.46;100.00
71043;BME280;58696;52.134;5.500;2023-08-06T02:29:56;100451.25;;;14.46;100.00
71043;BME280;58696;52.134;5.500;2023-08-06T02:32:23;100446.50;;;14.43;100.00
71043;BME280;58696;52.134;5.500;2023-08-06T02:34:49;100444.94;;;14.42;100.00
71043;BME280;58696;52.134;5.500;2023-08-06T02:37:22;100440.56;;;14.42;100.00
71043;BME280;58696;52.134;5.500;2023-08-06T02:39:49;100444.94;;;14.42;100.00
71043;BME280;58696;52.134;5.500;2023-08-06T02:42:16;100437.97;;;14.42;100.00
71043;BME280;58696;52.134;5.500;2023-08-06T02:44:45;100435.63;;;14.41;100.00
71043;BME280;58696;52.134;5.500;2023-08-06T02:47:14;100432.22;;;14.40;100.00
71043;BME280;58696;52.134;5.500;2023-08-06T02:49:43;100433.03;;;14.41;100.00
71043;BME280;58696;52.134;5.500;2023-08-06T02:52:10;100434.38;;;14.43;100.00
71043;BME280;58696;52.134;5.500;2023-08-06T02:54:36;100428.19;;;14.44;100.00
71043;BME280;58696;52.134;5.500;2023-08-06T02:57:06;100429.44;;;14.42;100.00
71043;BME280;58696;52.134;5.500;2023-08-06T02:59:36;100428.41;;;14.43;100.00
71043;BME280;58696;52.134;5.500;2023-08-06T03:02:03;100430.00;;;14.44;100.00
71043;BME280;58696;52.134;5.500;2023-08-06T03:04:32;100422.22;;;14.44;100.00
71043;BME280;58696;52.134;5.500;2023-08-06T03:06:58;100424.25;;;14.42;100.00
71043;BME280;58696;52.134;5.500;2023-08-06T03:09:25;100426.25;;;14.40;100.00
71043;BME280;58696;52.134;5.500;2023-08-06T03:11:52;100422.09;;;14.39;100.00
71043;BME280;58696;52.134;5.500;2023-08-06T03:14:23;100421.88;;;14.40;100.00
71043;BME280;58696;52.134;5.500;2023-08-06T03:16:55;100420.66;;;14.43;100.00
71043;BME280;58696;52.134;5.500;2023-08-06T03:19:30;100414.94;;;14.41;100.00
71043;BME280;58696;52.134;5.500;2023-08-06T03:21:56;100417.53;;;14.41;100.00
71043;BME280;58696;52.134;5.500;2023-08-06T03:24:23;100421.69;;;14.42;100.00
71043;BME280;58696;52.134;5.500;2023-08-06T03:26:49;100416.69;;;14.40;100.00
71043;BME280;58696;52.134;5.500;2023-08-06T03:29:18;100415.13;;;14.39;100.00
71043;BME280;58696;52.134;5.500;2023-08-06T03:31:48;100428.06;;;14.39;100.00
71043;BME280;58696;52.134;5.500;2023-08-06T03:34:14;100421.88;;;14.40;100.00
71043;BME280;58696;52.134;5.500;2023-08-06T03:36:41;100424.25;;;14.42;100.00
71043;BME280;58696;52.134;5.500;2023-08-06T03:39:07;100424.25;;;14.42;100.00
71043;BME280;58696;52.134;5.500;2023-08-06T03:41:39;100416.50;;;14.42;100.00
71043;BME280;58696;52.134;5.500;2023-08-06T03:44:08;100425.84;;;14.43;100.00
71043;BME280;58696;52.134;5.500;2023-08-06T03:46:34;100418.88;;;14.43;100.00
71043;BME280;58696;52.134;5.500;2023-08-06T03:49:03;100426.19;;;14.46;100.00
71043;BME280;58696;52.134;5.500;2023-08-06T03:51:32;100428.38;;;14.50;100.00
71043;BME280;58696;52.134;5.500;2023-08-06T03:53:58;100421.63;;;14.49;100.00
71043;BME280;58696;52.134;5.500;2023-08-06T03:56:27;100426.00;;;14.48;100.00
71043;BME280;58696;52.134;5.500;2023-08-06T03:58:53;100426.19;;;14.46;100.00
71043;BME280;58696;52.134;5.500;2023-08-06T04:01:22;100433.75;;;14.48;100.00
71043;BME280;58696;52.134;5.500;2023-08-06T04:03:51;100430.94;;;14.50;100.00
71043;BME280;58696;52.134;5.500;2023-08-06T04:06:18;100429.16;;;14.50;100.00
71043;BME280;58696;52.134;5.500;2023-08-06T04:08:44;100421.63;;;14.49;100.00
71043;BME280;58696;52.134;5.500;2023-08-06T04:11:11;100423.41;;;14.48;100.00
71043;BME280;58696;52.134;5.500;2023-08-06T04:13:44;100410.69;;;14.46;100.00
71043;BME280;58696;52.134;5.500;2023-08-06T04:16:13;100414.88;;;14.48;100.00
71043;BME280;58696;52.134;5.500;2023-08-06T04:18:42;100418.25;;;14.48;100.00
71043;BME280;58696;52.134;5.500;2023-08-06T04:21:17;100426.38;;;14.52;100.00
71043;BME280;58696;52.134;5.500;2023-08-06T04:23:44;100427.72;;;14.54;100.00
71043;BME280;58696;52.134;5.500;2023-08-06T04:26:10;100436.25;;;14.55;100.00
71043;BME280;58696;52.134;5.500;2023-08-06T04:28:39;100430.06;;;14.56;100.00
71043;BME280;58696;52.134;5.500;2023-08-06T04:31:08;100432.66;;;14.56;100.00
71043;BME280;58696;52.134;5.500;2023-08-06T04:33:35;100431.09;;;14.55;100.00
71043;BME280;58696;52.134;5.500;2023-08-06T04:36:01;100434.47;;;14.55;100.00
71043;BME280;58696;52.134;5.500;2023-08-06T04:38:28;100431.66;;;14.57;100.00
71043;BME280;58696;52.134;5.500;2023-08-06T04:41:01;100435.84;;;14.58;100.00
71043;BME280;58696;52.134;5.500;2023-08-06T04:43:28;100443.94;;;14.61;100.00
71043;BME280;58696;52.134;5.500;2023-08-06T04:45:55;100445.72;;;14.61;100.00
71043;BME280;58696;52.134;5.500;2023-08-06T04:48:24;100443.50;;;14.64;100.00
71043;BME280;58696;52.134;5.500;2023-08-06T04:50:53;100446.09;;;14.64;100.00
71043;BME280;58696;52.134;5.500;2023-08-06T04:53:22;100442.28;;;14.67;100.00
71043;BME280;58696;52.134;5.500;2023-08-06T04:55:51;100443.88;;;14.68;100.00
71043;BME280;58696;52.134;5.500;2023-08-06T04:58:26;100449.59;;;14.70;100.00
71043;BME280;58696;52.134;5.500;2023-08-06T05:00:55;100452.19;;;14.70;100.00
71043;BME280;58696;52.134;5.500;2023-08-06T05:03:24;100442.41;;;14.72;100.00
71043;BME280;58696;52.134;5.500;2023-08-06T05:05:53;100448.38;;;14.72;100.00
71043;BME280;58696;52.134;5.500;2023-08-06T05:08:25;100457.50;;;14.75;100.00
71043;BME280;58696;52.134;5.500;2023-08-06T05:10:51;100462.03;;;14.80;100.00
71043;BME280;58696;52.134;5.500;2023-08-06T05:13:18;100460.44;;;14.79;100.00
71043;BME280;58696;52.134;5.500;2023-08-06T05:15:44;100464.25;;;14.76;100.00
71043;BME280;58696;52.134;5.500;2023-08-06T05:18:12;100465.25;;;14.75;100.00
71043;BME280;58696;52.134;5.500;2023-08-06T05:20:40;100475.38;;;14.77;100.00
71043;BME280;58696;52.134;5.500;2023-08-06T05:23:09;100474.19;;;14.79;100.00
71043;BME280;58696;52.134;5.500;2023-08-06T05:25:36;100477.75;;;14.78;100.00
71043;BME280;58696;52.134;5.500;2023-08-06T05:28:05;100491.28;;;14.80;100.00
71043;BME280;58696;52.134;5.500;2023-08-06T05:30:32;100491.47;;;14.79;100.00
71043;BME280;58696;52.134;5.500;2023-08-06T05:32:59;100483.16;;;14.77;100.00
71043;BME280;58696;52.134;5.500;2023-08-06T05:35:25;100477.41;;;14.75;100.00
71043;BME280;58696;52.134;5.500;2023-08-06T05:37:54;100482.59;;;14.75;100.00
71043;BME280;58696;52.134;5.500;2023-08-06T05:40:21;100488.31;;;14.77;100.00
71043;BME280;58696;52.134;5.500;2023-08-06T05:42:47;100493.63;;;14.82;100.00
71043;BME280;58696;52.134;5.500;2023-08-06T05:45:14;100495.44;;;14.81;100.00
71043;BME280;58696;52.134;5.500;2023-08-06T05:47:41;100498.03;;;14.81;100.00
71043;BME280;58696;52.134;5.500;2023-08-06T05:50:08;100504.34;;;14.85;100.00
71043;BME280;58696;52.134;5.500;2023-08-06T05:52:35;100500.19;;;14.84;100.00
71043;BME280;58696;52.134;5.500;2023-08-06T05:55:02;100508.50;;;14.86;100.00
71043;BME280;58696;52.134;5.500;2023-08-06T05:57:31;100500.75;;;14.86;100.00
71043;BME280;58696;52.134;5.500;2023-08-06T05:59:59;100507.50;;;14.87;100.00
71043;BME280;58696;52.134;5.500;2023-08-06T06:02:27;100511.66;;;14.88;100.00
71043;BME280;58696;52.134;5.500;2023-08-06T06:04:57;100509.28;;;14.87;100.00
71043;BME280;58696;52.134;5.500;2023-08-06T06:07:24;100515.81;;;14.89;100.00
71043;BME280;58696;52.134;5.500;2023-08-06T06:09:53;100517.06;;;14.87;100.00
71043;BME280;58696;52.134;5.500;2023-08-06T06:12:24;100521.00;;;14.89;100.00
71043;BME280;58696;52.134;5.500;2023-08-06T06:14:53;100523.59;;;14.89;100.00
71043;BME280;58696;52.134;5.500;2023-08-06T06:17:21;100526.75;;;14.91;100.00
71043;BME280;58696;52.134;5.500;2023-08-06T06:19:48;100533.50;;;14.92;100.00
71043;BME280;58696;52.134;5.500;2023-08-06T06:22:17;100535.22;;;14.98;100.00
71043;BME280;58696;52.134;5.500;2023-08-06T06:24:46;100534.44;;;14.98;100.00
71043;BME280;58696;52.134;5.500;2023-08-06T06:27:15;100541.00;;;15.01;100.00
71043;BME280;58696;52.134;5.500;2023-08-06T06:29:44;100536.38;;;15.03;100.00
71043;BME280;58696;52.134;5.500;2023-08-06T06:32:14;100544.13;;;15.03;100.00
71043;BME280;58696;52.134;5.500;2023-08-06T06:34:43;100543.91;;;15.04;100.00
71043;BME280;58696;52.134;5.500;2023-08-06T06:37:10;100544.13;;;15.03;100.00
71043;BME280;58696;52.134;5.500;2023-08-06T06:39:39;100551.13;;;15.02;100.00
71043;BME280;58696;52.134;5.500;2023-08-06T06:42:07;100549.09;;;15.04;100.00
71043;BME280;58696;52.134;5.500;2023-08-06T06:44:34;100549.22;;;15.09;100.00
71043;BME280;58696;52.134;5.500;2023-08-06T06:47:01;100554.53;;;15.14;100.00
71043;BME280;58696;52.134;5.500;2023-08-06T06:49:27;100555.47;;;15.20;100.00
71043;BME280;58696;52.134;5.500;2023-08-06T06:51:58;100558.97;;;15.25;100.00
71043;BME280;58696;52.134;5.500;2023-08-06T06:54:24;100558.19;;;15.25;100.00
71043;BME280;58696;52.134;5.500;2023-08-06T06:56:53;100558.41;;;15.23;100.00
71043;BME280;58696;52.134;5.500;2023-08-06T06:59:23;100554.03;;;15.24;100.00
71043;BME280;58696;52.134;5.500;2023-08-06T07:01:51;100557.41;;;15.24;100.00
71043;BME280;58696;52.134;5.500;2023-08-06T07:04:18;100557.75;;;15.28;100.00
71043;BME280;58696;52.134;5.500;2023-08-06T07:06:50;100561.13;;;15.29;100.00
71043;BME280;58696;52.134;5.500;2023-08-06T07:09:20;100562.56;;;15.24;100.00
71043;BME280;58696;52.134;5.500;2023-08-06T07:11:47;100564.94;;;15.26;100.00
71043;BME280;58696;52.134;5.500;2023-08-06T07:14:16;100563.28;;;15.32;100.00
71043;BME280;58696;52.134;5.500;2023-08-06T07:16:43;100555.63;;;15.37;100.00
71043;BME280;58696;52.134;5.500;2023-08-06T07:19:12;100560.16;;;15.41;100.00
71043;BME280;58696;52.134;5.500;2023-08-06T07:21:39;100562.09;;;15.46;100.00
71043;BME280;58696;52.134;5.500;2023-08-06T07:24:05;100567.03;;;15.47;100.00
71043;BME280;58696;52.134;5.500;2023-08-06T07:26:36;100568.06;;;15.46;100.00
71043;BME280;58696;52.134;5.500;2023-08-06T07:29:05;100564.03;;;15.50;100.00
71043;BME280;58696;52.134;5.500;2023-08-06T07:31:34;100573.25;;;15.46;100.00
71043;BME280;58696;52.134;5.500;2023-08-06T07:34:01;100578.41;;;15.46;100.00
71043;BME280;58696;52.134;5.500;2023-08-06T07:36:31;100579.34;;;15.52;100.00
71043;BME280;58696;52.134;5.500;2023-08-06T07:39:03;100576.53;;;15.53;100.00
71043;BME280;58696;52.134;5.500;2023-08-06T07:41:32;100576.88;;;15.57;100.00
71043;BME280;58696;52.134;5.500;2023-08-06T07:43:59;100581.28;;;15.57;100.00
71043;BME280;58696;52.134;5.500;2023-08-06T07:46:28;100583.41;;;15.60;100.00
71043;BME280;58696;52.134;5.500;2023-08-06T07:48:55;100583.00;;;15.63;100.00
71043;BME280;58696;52.134;5.500;2023-08-06T07:51:26;100582.00;;;15.64;100.00
71043;BME280;58696;52.134;5.500;2023-08-06T07:53:55;100578.19;;;15.66;100.00
71043;BME280;58696;52.134;5.500;2023-08-06T07:56:22;100577.50;;;15.71;100.00
71043;BME280;58696;52.134;5.500;2023-08-06T07:58:51;100581.81;;;15.77;100.00
71043;BME280;58696;52.134;5.500;2023-08-06T08:01:22;100582.25;;;15.74;100.00
71043;BME280;58696;52.134;5.500;2023-08-06T08:03:49;100579.41;;;15.75;100.00
71043;BME280;58696;52.134;5.500;2023-08-06T08:06:16;100582.13;;;15.81;100.00
71043;BME280;58696;52.134;5.500;2023-08-06T08:08:42;100587.00;;;15.77;100.00
71043;BME280;58696;52.134;5.500;2023-08-06T08:11:12;100583.38;;;15.78;100.00
71043;BME280;58696;52.134;5.500;2023-08-06T08:13:39;100584.41;;;15.77;100.00
71043;BME280;58696;52.134;5.500;2023-08-06T08:16:08;100587.91;;;15.83;100.00
71043;BME280;58696;52.134;5.500;2023-08-06T08:18:38;100590.03;;;15.86;100.00
71043;BME280;58696;52.134;5.500;2023-08-06T08:21:11;100588.47;;;15.85;100.00
71043;BME280;58696;52.134;5.500;2023-08-06T08:23:38;100595.44;;;15.84;100.00
71043;BME280;58696;52.134;5.500;2023-08-06T08:26:08;100586.00;;;15.90;100.00
71043;BME280;58696;52.134;5.500;2023-08-06T08:28:37;100591.53;;;15.93;100.00
71043;BME280;58696;52.134;5.500;2023-08-06T08:31:08;100597.16;;;15.90;100.00
71043;BME280;58696;52.134;5.500;2023-08-06T08:33:37;100594.19;;;15.87;100.00
71043;BME280;58696;52.134;5.500;2023-08-06T08:36:06;100589.25;;;15.85;100.00
71043;BME280;58696;52.134;5.500;2023-08-06T08:38:33;100600.16;;;15.87;100.00
71043;BME280;58696;52.134;5.500;2023-08-06T08:41:04;100597.81;;;15.86;100.00
71043;BME280;58696;52.134;5.500;2023-08-06T08:43:31;100593.75;;;15.78;100.00
71043;BME280;58696;52.134;5.500;2023-08-06T08:45:58;100594.06;;;15.82;100.00
71043;BME280;58696;52.134;5.500;2023-08-06T08:48:28;100601.53;;;15.90;100.00
71043;BME280;58696;52.134;5.500;2023-08-06T08:50:56;100604.63;;;15.98;100.00
71043;BME280;58696;52.134;5.500;2023-08-06T08:53:28;100605.72;;;16.02;100.00
71043;BME280;58696;52.134;5.500;2023-08-06T08:55:55;100609.91;;;16.03;100.00
71043;BME280;58696;52.134;5.500;2023-08-06T08:58:23;100609.03;;;16.10;100.00
71043;BME280;58696;52.134;5.500;2023-08-06T09:00:50;100614.66;;;16.07;100.00
71043;BME280;58696;52.134;5.500;2023-08-06T09:03:18;100612.16;;;15.88;100.00
71043;BME280;58696;52.134;5.500;2023-08-06T09:05:45;100617.47;;;15.63;100.00
71043;BME280;58696;52.134;5.500;2023-08-06T09:08:24;100628.06;;;15.43;100.00
71043;BME280;58696;52.134;5.500;2023-08-06T09:10:54;100628.00;;;15.32;100.00
71043;BME280;58696;52.134;5.500;2023-08-06T09:13:26;100627.53;;;15.23;100.00
71043;BME280;58696;52.134;5.500;2023-08-06T09:15:53;100640.03;;;15.08;100.00
71043;BME280;58696;52.134;5.500;2023-08-06T09:18:26;100640.13;;;15.01;100.00
71043;BME280;58696;52.134;5.500;2023-08-06T09:20:58;100639.19;;;14.95;100.00
71043;BME280;58696;52.134;5.500;2023-08-06T09:23:29;100637.00;;;14.92;100.00
71043;BME280;58696;52.134;5.500;2023-08-06T09:25:57;100641.41;;;14.92;100.00
71043;BME280;58696;52.134;5.500;2023-08-06T09:28:24;100654.75;;;14.89;100.00
71043;BME280;58696;52.134;5.500;2023-08-06T09:30:54;100649.72;;;14.94;100.00
71043;BME280;58696;52.134;5.500;2023-08-06T09:33:24;100648.38;;;14.91;100.00
71043;BME280;58696;52.134;5.500;2023-08-06T09:35:51;100655.34;;;14.91;100.00
71043;BME280;58696;52.134;5.500;2023-08-06T09:38:20;100665.31;;;14.87;100.00
71043;BME280;58696;52.134;5.500;2023-08-06T09:40:47;100672.88;;;14.89;100.00
71043;BME280;58696;52.134;5.500;2023-08-06T09:43:19;100671.28;;;14.88;100.00
71043;BME280;58696;52.134;5.500;2023-08-06T09:45:47;100668.47;;;14.89;100.00
71043;BME280;58696;52.134;5.500;2023-08-06T09:48:18;100672.69;;;14.90;100.00
71043;BME280;58696;52.134;5.500;2023-08-06T09:50:49;100676.84;;;14.91;100.00
71043;BME280;58696;52.134;5.500;2023-08-06T09:53:18;100672.06;;;14.88;100.00
71043;BME280;58696;52.134;5.500;2023-08-06T09:55:46;100677.41;;;14.93;100.00
71043;BME280;58696;52.134;5.500;2023-08-06T09:58:15;100683.22;;;14.89;100.00
71043;BME280;58696;52.134;5.500;2023-08-06T10:00:41;100685.25;;;14.87;100.00
71043;BME280;58696;52.134;5.500;2023-08-06T10:03:11;100679.13;;;14.81;100.00
71043;BME280;58696;52.134;5.500;2023-08-06T10:05:46;100682.91;;;14.79;100.00
71043;BME280;58696;52.134;5.500;2023-08-06T10:08:14;100684.53;;;14.80;100.00
71043;BME280;58696;52.134;5.500;2023-08-06T10:10:43;100694.44;;;14.83;100.00
71043;BME280;58696;52.134;5.500;2023-08-06T10:13:11;100699.41;;;14.84;100.00
71043;BME280;58696;52.134;5.500;2023-08-06T10:15:39;100694.56;;;14.88;100.00
71043;BME280;58696;52.134;5.500;2023-08-06T10:18:07;100699.53;;;14.89;100.00
71043;BME280;58696;52.134;5.500;2023-08-06T10:20:34;100692.78;;;14.88;100.00
71043;BME280;58696;52.134;5.500;2023-08-06T10:23:02;100694.00;;;14.86;100.00
71043;BME280;58696;52.134;5.500;2023-08-06T10:25:35;100702.41;;;14.81;100.00
71043;BME280;58696;52.134;5.500;2023-08-06T10:28:11;100703.41;;;14.80;100.00
71043;BME280;58696;52.134;5.500;2023-08-06T10:30:45;100703.41;;;14.80;100.00
71043;BME280;58696;52.134;5.500;2023-08-06T10:33:13;100701.63;;;14.81;100.00
71043;BME280;58696;52.134;5.500;2023-08-06T10:35:49;100708.44;;;14.75;100.00
71043;BME280;58696;52.134;5.500;2023-08-06T10:38:21;100696.84;;;14.78;100.00
71043;BME280;58696;52.134;5.500;2023-08-06T10:45:57;100703.56;;;14.85;100.00
71043;BME280;58696;52.134;5.500;2023-08-06T10:48:45;100706.34;;;14.84;100.00
71043;BME280;58696;52.134;5.500;2023-08-06T10:51:13;100698.81;;;14.82;100.00
71043;BME280;58696;52.134;5.500;2023-08-06T10:53:42;100707.81;;;14.80;100.00
71043;BME280;58696;52.134;5.500;2023-08-06T10:56:16;100715.72;;;14.85;100.00
71043;BME280;58696;52.134;5.500;2023-08-06T10:58:53;100709.88;;;14.89;100.00
71043;BME280;58696;52.134;5.500;2023-08-06T11:01:24;100714.88;;;14.91;100.00
71043;BME280;58696;52.134;5.500;2023-08-06T11:03:53;100723.13;;;14.99;100.00
71043;BME280;58696;52.134;5.500;2023-08-06T11:06:25;100716.97;;;15.01;100.00
71043;BME280;58696;52.134;5.500;2023-08-06T11:08:57;100719.69;;;15.06;100.00
71043;BME280;58696;52.134;5.500;2023-08-06T11:11:24;100722.88;;;15.08;100.00
71043;BME280;58696;52.134;5.500;2023-08-06T11:13:53;100726.81;;;15.10;100.00
71043;BME280;58696;52.134;5.500;2023-08-06T11:16:26;100729.19;;;15.12;100.00
71043;BME280;58696;52.134;5.500;2023-08-06T11:19:01;100733.22;;;15.08;100.00
71043;BME280;58696;52.134;5.500;2023-08-06T11:21:30;100727.81;;;15.09;100.00
71043;BME280;58696;52.134;5.500;2023-08-06T11:24:01;100727.81;;;15.09;100.00
71043;BME280;58696;52.134;5.500;2023-08-06T11:26:28;100728.03;;;15.08;100.00
71043;BME280;58696;52.134;5.500;2023-08-06T11:28:55;100739.41;;;15.07;100.00
71043;BME280;58696;52.134;5.500;2023-08-06T11:31:22;100738.25;;;15.03;100.00
71043;BME280;58696;52.134;5.500;2023-08-06T11:33:50;100741.47;;;14.98;100.00
71043;BME280;58696;52.134;5.500;2023-08-06T11:36:31;100745.84;;;14.97;100.00
71043;BME280;58696;52.134;5.500;2023-08-06T11:39:01;100743.84;;;14.99;100.00
71043;BME280;58696;52.134;5.500;2023-08-06T11:41:34;100746.88;;;14.96;100.00
71043;BME280;58696;52.134;5.500;2023-08-06T11:44:02;100746.63;;;14.98;100.00
71043;BME280;58696;52.134;5.500;2023-08-06T11:46:29;100750.03;;;14.98;100.00
71043;BME280;58696;52.134;5.500;2023-08-06T11:49:17;100750.03;;;14.98;100.00
71043;BME280;58696;52.134;5.500;2023-08-06T11:51:47;100747.88;;;14.95;100.00
71043;BME280;58696;52.134;5.500;2023-08-06T11:54:14;100749.50;;;14.90;100.00
71043;BME280;58696;52.134;5.500;2023-08-06T11:56:44;100751.09;;;14.91;100.00
71043;BME280;58696;52.134;5.500;2023-08-06T11:59:15;100756.31;;;14.84;100.00
71043;BME280;58696;52.134;5.500;2023-08-06T12:01:41;100751.41;;;14.76;100.00
71043;BME280;58696;52.134;5.500;2023-08-06T12:04:10;100753.41;;;14.74;100.00
71043;BME280;58696;52.134;5.500;2023-08-06T12:06:42;100754.84;;;14.70;100.00
71043;BME280;58696;52.134;5.500;2023-08-06T12:09:10;100756.25;;;14.66;100.00
71043;BME280;58696;52.134;5.500;2023-08-06T12:11:37;100755.25;;;14.67;100.00
71043;BME280;58696;52.134;5.500;2023-08-06T12:14:06;100767.59;;;14.65;100.00
71043;BME280;58696;52.134;5.500;2023-08-06T12:16:38;100770.41;;;14.63;100.00
71043;BME280;58696;52.134;5.500;2023-08-06T12:19:11;100768.78;;;14.69;100.00
71043;BME280;58696;52.134;5.500;2023-08-06T12:21:39;100772.31;;;14.75;100.00
71043;BME280;58696;52.134;5.500;2023-08-06T12:24:11;100782.66;;;14.75;100.00
71043;BME280;58696;52.134;5.500;2023-08-06T12:26:38;100782.03;;;14.79;100.00
71043;BME280;58696;52.134;5.500;2023-08-06T12:29:08;100779.81;;;14.83;100.00
71043;BME280;58696;52.134;5.500;2023-08-06T12:31:34;100782.78;;;14.86;100.00
71043;BME280;58696;52.134;5.500;2023-08-06T12:34:01;100777.16;;;14.89;100.00
71043;BME280;58696;52.134;5.500;2023-08-06T12:36:28;100789.63;;;14.99;100.00
71043;BME280;58696;52.134;5.500;2023-08-06T12:38:57;100782.81;;;15.05;100.00
71043;BME280;58696;52.134;5.500;2023-08-06T12:41:25;100788.94;;;15.10;100.00
71043;BME280;58696;52.134;5.500;2023-08-06T12:43:52;100790.72;;;15.10;100.00
71043;BME280;58696;52.134;5.500;2023-08-06T12:46:18;100786.34;;;15.10;100.00
71043;BME280;58696;52.134;5.500;2023-08-06T12:48:48;100794.75;;;15.06;100.00
71043;BME280;58696;52.134;5.500;2023-08-06T12:51:15;100801.09;;;15.10;100.00
71043;BME280;58696;52.134;5.500;2023-08-06T12:53:44;100801.31;;;15.08;100.00
71043;BME280;58696;52.134;5.500;2023-08-06T12:56:11;100812.03;;;15.12;100.00
71043;BME280;58696;52.134;5.500;2023-08-06T12:58:40;100806.19;;;15.16;100.00
71043;BME280;58696;52.134;5.500;2023-08-06T13:01:11;100811.19;;;15.18;100.00